Time;durP1;ratioP1;P1;durP2;ratioP2;P2;SDS_P1;SDS_P2;PMS_P1;PMS_P2;Temp;Humidity;BMP_temperature;BMP_pressure;BME280_temperature;BME280_humidity;BME280_pressure;Samples;Min_cycle;Max_cycle;Signal;HPM_P1;HPM_P2
2022/12/06 02:12:13;;;;;;;13.13;4.60;;;;;;;-10.42;100.00;102810.02;1813307;79;28515;-78
2022/12/06 02:14:42;;;;;;;11.65;4.12;;;;;;;-10.32;100.00;102811.31;1785170;80;21026;-78
2022/12/06 02:17:19;;;;;;;10.30;4.45;;;;;;;-10.17;100.00;102809.73;1757872;80;21106;-78
2022/12/06 02:20:12;;;;;;;13.28;4.80;;;;;;;-10.02;100.00;102807.72;1782472;80;21016;-79
2022/12/06 02:22:59;;;;;;;12.93;4.20;;;;;;;-9.86;100.00;102800.86;1782706;80;20972;-79
2022/12/06 02:26:02;;;;;;;11.55;3.70;;;;;;;-9.73;100.00;102797.69;1749035;82;21641;-78
2022/12/06 02:28:55;;;;;;;10.88;3.80;;;;;;;-9.60;100.00;102801.39;1749048;82;21206;-79
2022/12/06 02:31:38;;;;;;;16.57;3.97;;;;;;;-9.53;100.00;102801.93;1746043;82;21154;-78
2022/12/06 02:34:21;;;;;;;10.90;4.25;;;;;;;-9.50;100.00;102800.04;1693296;84;21012;-78
2022/12/06 02:37:15;;;;;;;13.32;4.20;;;;;;;-9.44;100.00;102801.48;1690809;84;21645;-79
2022/12/06 02:40:02;;;;;;;13.15;4.33;;;;;;;-9.42;100.00;102799.65;1693416;84;21059;-78
2022/12/06 02:42:39;;;;;;;10.82;4.20;;;;;;;-9.37;100.00;102804.19;1686630;84;21029;-79
2022/12/06 02:45:16;;;;;;;11.88;4.37;;;;;;;-9.37;100.00;102802.42;1662104;86;21732;-79
2022/12/06 02:47:44;;;;;;;13.35;4.08;;;;;;;-9.32;100.00;102807.86;1663937;86;21054;-79
2022/12/06 02:50:21;;;;;;;10.50;3.85;;;;;;;-9.30;100.00;102799.04;1663848;86;21047;-79
2022/12/06 02:52:50;;;;;;;10.43;2.80;;;;;;;-9.34;100.00;102800.59;1662426;86;20991;-79
2022/12/06 02:55:18;;;;;;;8.65;3.77;;;;;;;-9.32;100.00;102795.68;1663744;86;21085;-79
2022/12/06 02:57:49;;;;;;;12.53;4.28;;;;;;;-9.31;100.00;102800.44;1643376;86;22104;-79
2022/12/06 03:00:44;;;;;;;13.15;3.70;;;;;;;-9.29;100.00;102790.31;1636742;87;21708;-79
2022/12/06 03:03:44;;;;;;;10.13;4.35;;;;;;;-9.27;100.00;102794.12;1653284;85;21130;-79
2022/12/06 03:06:24;;;;;;;12.37;3.95;;;;;;;-9.28;100.00;102795.90;1628380;88;21055;-78
2022/12/06 03:09:36;;;;;;;12.65;3.72;;;;;;;-9.27;100.00;102784.53;1626249;88;21047;-79
2022/12/06 03:12:14;;;;;;;11.38;4.15;;;;;;;-9.28;100.00;102786.77;1618494;87;21192;-78
2022/12/06 03:14:51;;;;;;;10.18;3.45;;;;;;;-9.28;100.00;102794.59;1617670;87;21083;-77
2022/12/06 03:17:28;;;;;;;10.03;3.60;;;;;;;-9.27;100.00;102786.30;1613811;87;21082;-78
2022/12/06 03:20:00;;;;;;;12.05;3.92;;;;;;;-9.29;100.00;102789.00;1612960;88;21020;-78
2022/12/06 03:22:36;;;;;;;14.80;3.95;;;;;;;-9.18;100.00;102784.53;1611999;88;21109;-78
2022/12/06 03:25:05;;;;;;;12.10;3.60;;;;;;;-9.23;100.00;102780.86;1628415;87;21975;-78
2022/12/06 03:27:33;;;;;;;11.68;4.55;;;;;;;-9.22;100.00;102781.70;1634071;87;21045;-78
2022/12/06 03:30:04;;;;;;;13.78;4.45;;;;;;;-9.19;100.00;102784.99;1633872;87;21017;-78
2022/12/06 03:32:32;;;;;;;13.13;4.28;;;;;;;-9.18;100.00;102784.06;1633977;87;21105;-78
2022/12/06 03:35:04;;;;;;;10.28;4.08;;;;;;;-9.17;100.00;102776.63;1634016;87;21034;-78
2022/12/06 03:37:32;;;;;;;13.58;4.37;;;;;;;-9.16;100.00;102775.70;1633883;87;21541;-78
2022/12/06 03:40:27;;;;;;;17.50;4.45;;;;;;;-9.15;100.00;102778.72;1634105;87;21034;-77
2022/12/06 03:42:54;;;;;;;13.38;4.37;;;;;;;-9.12;100.00;102787.30;1698612;83;21040;-78
2022/12/06 03:45:26;;;;;;;12.35;4.30;;;;;;;-9.14;100.00;102783.47;1725676;82;21021;-78
2022/12/06 03:48:00;;;;;;;11.90;4.12;;;;;;;-9.08;100.00;102787.55;1725971;82;21009;-78
2022/12/06 03:50:37;;;;;;;13.28;3.87;;;;;;;-9.10;100.00;102776.32;1720104;83;21164;-78
2022/12/06 03:53:03;;;;;;;20.20;3.67;;;;;;;-9.14;100.00;102778.25;1726255;82;21141;-78
2022/12/06 03:55:29;;;;;;;15.18;3.65;;;;;;;-9.10;100.00;102767.19;1726057;83;26477;-77
2022/12/06 03:57:54;;;;;;;11.80;3.60;;;;;;;-9.11;100.00;102770.26;1725988;83;20886;-78
2022/12/06 04:00:21;;;;;;;13.00;3.77;;;;;;;-9.15;100.00;102773.50;1726187;83;20898;-78
2022/12/06 04:02:47;;;;;;;15.23;4.30;;;;;;;-9.16;100.00;102772.25;1725982;83;21237;-77
2022/12/06 04:05:13;;;;;;;10.13;3.80;;;;;;;-9.15;100.00;102765.66;1725822;83;26436;-78
2022/12/06 04:07:39;;;;;;;13.40;4.30;;;;;;;-9.19;100.00;102761.50;1726099;83;21451;-78
2022/12/06 04:10:06;;;;;;;20.75;4.33;;;;;;;-9.20;100.00;102763.73;1726082;83;21072;-78
2022/12/06 04:15:21;;;;;;;15.95;5.22;;;;;;;-9.14;100.00;102765.20;1718423;83;21526;-78
2022/12/06 04:23:02;;;;;;;19.17;4.62;;;;;;;-9.12;100.00;102762.02;1718405;83;21073;-78
2022/12/06 04:23:02;;;;;;;14.30;4.40;;;;;;;-9.19;100.00;102763.27;1714588;83;21088;-78
2022/12/06 04:25:34;;;;;;;12.43;4.33;;;;;;;-9.24;100.00;102761.34;1718320;83;22459;-78
2022/12/06 04:39:01;;;;;;;13.65;4.67;;;;;;;-9.28;100.00;102753.30;1748707;82;20994;-77
2022/12/06 04:44:11;;;;;;;13.05;4.42;;;;;;;-9.26;100.00;102756.68;1748942;82;20992;-78
2022/12/06 04:46:38;;;;;;;13.28;4.47;;;;;;;-9.24;100.00;102753.52;1749100;82;21106;-77
2022/12/06 04:49:04;;;;;;;13.72;4.50;;;;;;;-9.25;100.00;102752.67;1749004;81;21034;-78
2022/12/06 04:51:32;;;;;;;13.18;4.92;;;;;;;-9.30;100.00;102753.36;1748722;82;20991;-78
2022/12/06 04:53:58;;;;;;;14.75;4.83;;;;;;;-9.29;100.00;102756.38;1748922;82;21131;-78
2022/12/06 04:56:24;;;;;;;12.45;4.97;;;;;;;-9.23;100.00;102746.08;1748801;82;21050;-78
2022/12/06 04:58:50;;;;;;;15.00;5.08;;;;;;;-9.27;100.00;102756.28;1748961;82;26546;-77
2022/12/06 05:01:17;;;;;;;14.05;5.05;;;;;;;-9.28;100.00;102751.98;1719625;82;21030;-78
2022/12/06 05:03:43;;;;;;;11.25;4.60;;;;;;;-9.29;100.00;102745.06;1749103;82;21071;-77
2022/12/06 05:06:09;;;;;;;17.15;4.58;;;;;;;-9.19;100.00;102748.45;1748874;82;21118;-78
2022/12/06 05:08:35;;;;;;;12.30;4.37;;;;;;;-9.25;100.00;102747.45;1748779;82;26546;-78
2022/12/06 05:11:01;;;;;;;15.55;4.80;;;;;;;-9.22;100.00;102750.38;1756497;80;27001;-78
2022/12/06 05:13:27;;;;;;;12.30;4.72;;;;;;;-9.23;100.00;102756.06;1779834;80;21016;-78
2022/12/06 05:16:03;;;;;;;17.20;5.17;;;;;;;-9.24;100.00;102755.66;1779890;80;20956;-78
2022/12/06 05:18:30;;;;;;;18.85;5.53;;;;;;;-9.21;100.00;102748.97;1779604;80;21116;-78
2022/12/06 05:21:07;;;;;;;14.65;4.80;;;;;;;-9.21;100.00;102755.50;1779738;80;20987;-78
2022/12/06 05:23:34;;;;;;;13.35;4.80;;;;;;;-9.18;100.00;102749.28;1780084;80;21074;-78
2022/12/06 05:26:04;;;;;;;14.13;4.83;;;;;;;-9.13;100.00;102754.28;1779862;80;20994;-77
2022/12/06 05:28:31;;;;;;;14.58;5.25;;;;;;;-9.09;100.00;102745.36;1713491;83;21228;-78
2022/12/06 05:30:57;;;;;;;12.73;4.25;;;;;;;-9.13;100.00;102743.38;1713426;83;21490;-78
2022/12/06 05:33:24;;;;;;;13.08;4.30;;;;;;;-9.11;100.00;102744.15;1713371;83;20958;-78
2022/12/06 05:35:50;;;;;;;22.42;6.40;;;;;;;-9.08;100.00;102741.84;1713151;83;21087;-78
2022/12/06 05:38:17;;;;;;;15.53;4.97;;;;;;;-9.04;100.00;102739.45;1713475;83;21540;-78
2022/12/06 05:40:44;;;;;;;12.28;4.58;;;;;;;-9.00;100.00;102736.61;1713551;83;21094;-78
2022/12/06 05:43:11;;;;;;;14.83;4.47;;;;;;;-8.94;100.00;102734.11;1713676;83;21122;-78
2022/12/06 05:49:17;;;;;;;12.95;3.75;;;;;;;-8.72;100.00;102741.69;1713186;83;21608;-79
2022/12/06 05:51:43;;;;;;;13.38;3.67;;;;;;;-8.29;100.00;102746.73;1689530;83;20993;-79
2022/12/06 06:16:11;;;;;;;9.60;3.83;;;;;;;-2.14;100.00;102717.05;1717811;83;21014;-81
2022/12/06 06:22:18;;;;;;;11.05;4.80;;;;;;;-0.36;89.37;102721.05;1718047;83;21402;-82
2022/12/06 06:24:45;;;;;;;13.65;4.62;;;;;;;0.05;86.13;102710.73;1732774;80;21003;-81
2022/12/06 06:27:11;;;;;;;14.33;4.90;;;;;;;0.88;82.91;102707.98;1784762;80;21477;-82
2022/12/06 06:29:37;;;;;;;11.22;4.40;;;;;;;1.38;71.96;102704.64;1784726;80;21122;-82
2022/12/06 06:32:03;;;;;;;13.53;5.75;;;;;;;1.40;68.06;102706.67;1784530;80;20924;-83
2022/12/06 06:34:29;;;;;;;19.85;4.62;;;;;;;1.61;68.15;102702.44;1784726;80;21479;-83
2022/12/06 06:36:55;;;;;;;11.95;5.25;;;;;;;2.46;66.78;102698.46;1784774;80;20884;-83
2022/12/06 06:39:21;;;;;;;11.83;4.15;;;;;;;2.64;62.17;102699.27;1784947;80;21456;-82
2022/12/06 06:41:47;;;;;;;11.22;4.05;;;;;;;2.69;56.63;102690.33;1784815;80;21324;-83
2022/12/06 06:47:53;;;;;;;13.53;4.80;;;;;;;2.65;56.89;102693.47;1784237;80;21008;-82
2022/12/06 06:50:19;;;;;;;15.60;5.42;;;;;;;3.32;57.51;102695.00;1784743;80;20889;-83
2022/12/06 06:52:46;;;;;;;13.60;4.67;;;;;;;4.56;55.98;102692.44;1784576;80;20975;-83
2022/12/06 06:55:12;;;;;;;12.18;5.15;;;;;;;4.66;51.31;102696.26;1784714;80;21566;-83
2022/12/06 06:57:40;;;;;;;11.03;4.25;;;;;;;4.57;51.13;102685.25;1784877;80;20933;-83
2022/12/06 07:00:08;;;;;;;10.68;5.53;;;;;;;4.90;49.02;102696.21;1784403;80;20968;-83
2022/12/06 07:02:34;;;;;;;14.87;4.47;;;;;;;4.75;49.59;102683.22;1784836;80;21527;-83
2022/12/06 07:05:00;;;;;;;12.40;4.53;;;;;;;5.23;51.59;102687.63;1785061;80;20995;-83
2022/12/06 07:07:26;;;;;;;22.62;4.45;;;;;;;6.13;47.58;102683.66;1784881;80;21078;-83
2022/12/06 07:09:52;;;;;;;9.65;4.80;;;;;;;5.67;45.08;102688.91;1785037;80;20836;-83
2022/12/06 07:12:18;;;;;;;10.85;5.05;;;;;;;5.58;44.41;102688.63;1776826;80;21023;-81
2022/12/06 07:14:44;;;;;;;11.95;5.37;;;;;;;5.50;44.03;102679.30;1774293;80;20896;-81
2022/12/06 07:17:10;;;;;;;11.83;4.72;;;;;;;5.64;42.57;102675.89;1774348;80;21709;-81
2022/12/06 07:19:36;;;;;;;15.25;5.22;;;;;;;5.66;44.75;102673.38;1774217;80;21721;-81
2022/12/06 07:22:02;;;;;;;11.38;5.75;;;;;;;6.07;43.09;102667.80;1773895;80;21040;-81
2022/12/06 07:24:28;;;;;;;13.22;5.67;;;;;;;6.08;42.47;102664.10;1774504;80;21511;-80
2022/12/06 07:26:56;;;;;;;16.82;5.28;;;;;;;6.22;41.06;102663.84;1774298;80;21027;-81
2022/12/06 07:29:22;;;;;;;9.43;4.58;;;;;;;5.99;39.90;102656.31;1774027;80;21132;-81
2022/12/06 07:31:48;;;;;;;12.82;5.85;;;;;;;6.27;40.54;102665.98;1774290;80;21258;-81
2022/12/06 07:34:14;;;;;;;14.43;5.58;;;;;;;6.12;39.50;102659.25;1774232;80;21641;-80
2022/12/06 07:36:39;;;;;;;16.23;5.90;;;;;;;6.42;38.79;102660.67;1774138;80;20857;-81
2022/12/06 07:39:05;;;;;;;11.08;5.28;;;;;;;6.18;40.41;102657.19;1774393;80;20849;-81
2022/12/06 07:47:01;;;;;;;12.37;5.30;;;;;;;7.08;38.05;102650.93;1773701;80;20986;-80
2022/12/06 07:49:28;;;;;;;12.33;5.33;;;;;;;7.30;37.77;102644.33;1774409;80;21000;-81
2022/12/06 07:51:55;;;;;;;14.45;5.50;;;;;;;6.93;38.07;102648.77;1774308;80;20992;-80
2022/12/06 07:58:02;;;;;;;16.85;5.40;;;;;;;6.57;36.05;102628.88;1773925;80;21024;-80
2022/12/06 08:04:09;;;;;;;15.98;6.03;;;;;;;6.92;35.79;102625.16;1773825;80;21020;-82
2022/12/06 08:06:35;;;;;;;19.80;6.05;;;;;;;7.12;37.41;102621.89;1774125;80;20988;-82
2022/12/06 08:09:02;;;;;;;19.67;5.90;;;;;;;7.51;35.72;102624.25;1774226;80;21007;-82
2022/12/06 08:11:28;;;;;;;18.60;6.58;;;;;;;7.01;35.40;102616.52;1774051;80;21097;-82
2022/12/06 08:17:35;;;;;;;14.55;5.50;;;;;;;6.24;35.48;102599.42;1773937;80;20933;-83
2022/12/06 08:20:01;;;;;;;17.05;5.67;;;;;;;3.13;35.52;102609.02;1774215;80;21035;-83
2022/12/06 08:22:27;;;;;;;14.23;6.33;;;;;;;1.56;37.25;102604.09;1774090;80;20999;-84
2022/12/06 08:24:53;;;;;;;15.80;5.20;;;;;;;0.78;38.00;102604.15;1773894;80;21120;-83
2022/12/06 08:27:20;;;;;;;13.43;5.25;;;;;;;-0.34;39.54;102606.04;1774184;80;20853;-83
2022/12/06 08:29:45;;;;;;;15.85;5.28;;;;;;;-0.89;40.48;102606.97;1774157;80;20981;-82
2022/12/06 08:32:12;;;;;;;15.72;4.97;;;;;;;-1.22;40.94;102594.38;1765593;80;20941;-83
2022/12/06 08:38:19;;;;;;;16.57;5.28;;;;;;;-2.00;42.33;102585.63;1687174;84;21151;-82
2022/12/06 08:44:27;;;;;;;20.60;5.17;;;;;;;-2.32;43.34;102584.71;1704940;84;21074;-83
2022/12/06 08:46:54;;;;;;;22.02;5.03;;;;;;;-2.49;43.68;102575.17;1705091;84;21106;-83
2022/12/06 08:49:21;;;;;;;18.12;4.78;;;;;;;-2.54;44.02;102579.49;1697150;83;20991;-83
2022/12/06 08:51:47;;;;;;;22.13;5.75;;;;;;;-2.64;44.59;102577.26;1700253;84;21102;-82
2022/12/06 08:54:17;;;;;;;24.25;5.10;;;;;;;-2.63;44.57;102565.23;1704735;83;21488;-83
2022/12/06 08:56:43;;;;;;;20.62;5.17;;;;;;;-2.55;44.72;102566.78;1697889;84;21024;-83
2022/12/06 08:59:10;;;;;;;22.37;5.87;;;;;;;-2.58;44.81;102560.44;1708423;84;21079;-84
2022/12/06 09:01:37;;;;;;;15.58;5.15;;;;;;;-2.53;45.01;102571.92;1686433;84;21013;-83
2022/12/06 09:04:05;;;;;;;17.00;5.30;;;;;;;-2.55;45.05;102554.08;1708218;84;21730;-83
2022/12/06 09:06:31;;;;;;;20.88;5.25;;;;;;;-2.58;45.21;102555.16;1708396;83;21043;-82
2022/12/06 09:08:57;;;;;;;15.00;4.90;;;;;;;-2.56;45.83;102549.73;1708580;83;20996;-82
2022/12/06 09:11:25;;;;;;;20.52;5.20;;;;;;;-2.48;45.87;102547.31;1708470;83;20963;-82
2022/12/06 09:13:51;;;;;;;13.58;4.95;;;;;;;-2.34;45.65;102541.74;1671784;85;21571;-83
2022/12/06 09:16:21;;;;;;;22.32;5.15;;;;;;;-2.28;45.34;102544.36;1678192;84;21092;-83
2022/12/06 09:18:48;;;;;;;13.45;4.67;;;;;;;-2.33;45.69;102530.70;1677853;84;21064;-84
2022/12/06 09:21:19;;;;;;;13.38;4.75;;;;;;;-2.16;45.24;102530.13;1678038;85;21557;-82
2022/12/06 09:23:46;;;;;;;19.27;5.15;;;;;;;-2.13;45.17;102520.63;1679874;84;21469;-83
2022/12/06 09:26:12;;;;;;;22.52;5.70;;;;;;;-2.09;45.26;102511.96;1678030;84;21092;-82
2022/12/06 09:28:41;;;;;;;14.85;4.35;;;;;;;-2.09;45.85;102511.96;1678284;85;21256;-82
2022/12/06 09:31:08;;;;;;;16.70;4.50;;;;;;;-1.94;45.17;102501.91;1677868;84;21074;-82
2022/12/06 09:33:35;;;;;;;15.65;4.45;;;;;;;-1.82;44.77;102500.88;1679915;84;21048;-83
2022/12/06 09:36:05;;;;;;;10.80;3.60;;;;;;;-1.80;45.22;102497.60;1679243;85;21024;-83
2022/12/06 09:38:35;;;;;;;11.75;3.70;;;;;;;-1.62;44.75;102498.69;1679347;84;21553;-83
2022/12/06 09:41:38;;;;;;;9.63;3.62;;;;;;;-1.54;44.78;102505.11;1680741;84;21328;-83
2022/12/06 09:44:24;;;;;;;13.95;3.30;;;;;;;-1.52;44.74;102486.83;1678578;85;21009;-82
2022/12/06 09:47:11;;;;;;;7.72;3.17;;;;;;;-1.53;44.86;102485.16;1677153;85;21005;-82
2022/12/06 09:50:11;;;;;;;9.75;3.77;;;;;;;-1.39;44.73;102480.80;1672486;85;21517;-82
2022/12/06 09:52:46;;;;;;;14.40;3.58;;;;;;;-1.37;45.09;102473.58;1669659;85;21018;-82
2022/12/06 09:55:28;;;;;;;10.05;3.10;;;;;;;-1.22;44.66;102474.03;1588826;88;21606;-83
2022/12/06 09:58:29;;;;;;;10.55;3.42;;;;;;;-1.23;44.31;102471.05;1587873;89;21081;-82
2022/12/06 10:01:03;;;;;;;11.00;2.90;;;;;;;-1.21;44.66;102475.70;1588531;89;21051;-83
2022/12/06 10:03:41;;;;;;;16.80;3.35;;;;;;;-1.10;44.62;102475.25;1570367;90;21056;-83
2022/12/06 10:06:15;;;;;;;8.90;2.75;;;;;;;-1.07;44.40;102455.13;1572381;90;21069;-83
2022/12/06 10:09:28;;;;;;;15.23;3.33;;;;;;;-1.11;44.93;102457.22;1530562;93;21187;-82
2022/12/06 10:12:02;;;;;;;14.55;3.67;;;;;;;-0.97;44.75;102451.54;1527776;93;21662;-81
2022/12/06 10:15:16;;;;;;;13.43;3.22;;;;;;;-0.94;44.87;102454.40;1497130;94;21102;-80
2022/12/06 10:18:16;;;;;;;14.13;3.25;;;;;;;-0.89;44.76;102440.73;1493603;96;21071;-81
2022/12/06 10:21:02;;;;;;;16.12;3.50;;;;;;;-0.85;45.12;102432.39;1494165;95;21157;-81
2022/12/06 10:23:46;;;;;;;10.05;3.70;;;;;;;-0.74;44.57;102432.72;1490466;96;21269;-80
2022/12/06 10:26:23;;;;;;;10.18;3.60;;;;;;;-0.81;44.86;102428.97;1482492;96;21132;-81
2022/12/06 10:29:00;;;;;;;11.18;3.67;;;;;;;-0.71;44.95;102431.11;1495759;95;21551;-80
2022/12/06 10:31:58;;;;;;;9.55;3.50;;;;;;;-0.70;45.02;102423.55;1480973;96;21066;-81
2022/12/06 10:34:52;;;;;;;12.50;3.25;;;;;;;-0.80;45.29;102422.20;1481303;96;23093;-80
2022/12/06 10:37:48;;;;;;;13.55;3.67;;;;;;;-0.70;44.93;102414.28;1481468;95;21291;-80
2022/12/06 10:40:31;;;;;;;15.58;3.95;;;;;;;-0.76;45.21;102415.67;1498529;93;21102;-81
2022/12/06 10:43:21;;;;;;;17.45;4.78;;;;;;;-0.74;45.68;102419.48;1466859;97;21058;-81
2022/12/06 10:49:20;;;;;;;11.38;4.70;;;;;;;-0.60;44.89;102423.53;1423934;100;21062;-80
2022/12/06 10:52:06;;;;;;;16.20;4.28;;;;;;;-0.60;44.85;102406.31;1419070;99;21168;-80
2022/12/06 10:54:40;;;;;;;19.25;5.30;;;;;;;-0.64;45.07;102403.62;1413232;99;21632;-80
2022/12/06 10:57:12;;;;;;;17.98;4.78;;;;;;;-0.60;45.14;102399.20;1413835;99;21096;-80
2022/12/06 10:59:53;;;;;;;21.77;5.15;;;;;;;-0.56;44.73;102380.75;1453905;98;21220;-80
2022/12/06 11:02:42;;;;;;;12.75;4.47;;;;;;;-0.61;44.80;102384.31;1444208;97;21140;-79
2022/12/06 11:05:31;;;;;;;18.27;4.22;;;;;;;-0.67;45.22;102380.91;1444995;97;21220;-79
2022/12/06 11:08:07;;;;;;;22.70;4.50;;;;;;;-0.60;44.95;102383.81;1380678;102;21119;-79
2022/12/06 11:10:34;;;;;;;17.70;4.70;;;;;;;-0.62;45.19;102369.38;1364047;103;21201;-79
2022/12/06 11:13:18;;;;;;;21.40;5.62;;;;;;;-0.59;44.94;102371.77;1390344;103;21154;-79
2022/12/06 11:15:58;;;;;;;15.08;4.80;;;;;;;-0.49;44.72;102354.04;1330080;107;21739;-79
2022/12/06 11:18:29;;;;;;;16.23;4.80;;;;;;;-0.55;44.53;102355.94;1300394;109;22074;-79
2022/12/06 11:21:32;;;;;;;13.93;4.75;;;;;;;-0.53;44.79;102367.23;1315954;107;21710;-79
2022/12/06 11:24:04;;;;;;;15.88;4.87;;;;;;;-0.42;44.43;102360.08;1293733;109;21227;-80
2022/12/06 11:27:00;;;;;;;15.13;4.95;;;;;;;-0.27;43.86;102345.39;1309160;109;21197;-80
2022/12/06 11:29:26;;;;;;;15.18;3.90;;;;;;;-0.28;43.68;102347.20;1317741;107;21268;-80
2022/12/06 11:31:59;;;;;;;21.37;4.75;;;;;;;-0.19;43.52;102349.97;1317575;107;21172;-80
2022/12/06 11:34:47;;;;;;;18.40;4.25;;;;;;;-0.20;43.61;102338.55;1317824;107;21045;-81
2022/12/06 11:37:17;;;;;;;26.97;4.83;;;;;;;-0.18;43.54;102341.87;1317679;107;21220;-80
2022/12/06 11:39:44;;;;;;;13.58;4.42;;;;;;;-0.18;43.35;102339.22;1276617;111;21134;-80
2022/12/06 11:42:14;;;;;;;12.65;3.90;;;;;;;-0.17;43.63;102334.78;1267066;113;21221;-80
2022/12/06 11:44:47;;;;;;;13.40;3.92;;;;;;;-0.09;43.26;102341.02;1279969;109;21222;-80
2022/12/06 11:50:54;;;;;;;10.72;3.77;;;;;;;0.01;43.27;102326.89;1272593;112;21266;-80
2022/12/06 12:01:01;;;;;;;21.40;6.10;;;;;;;0.10;43.31;102316.72;1337541;107;21171;-79
2022/12/06 12:07:12;;;;;;;33.78;8.20;;;;;;;0.17;43.33;102309.83;1340881;103;21200;-80
2022/12/06 12:09:52;;;;;;;26.37;6.20;;;;;;;0.20;43.18;102308.20;1376859;103;21143;-80
2022/12/06 12:15:31;;;;;;;18.50;5.25;;;;;;;0.33;42.78;102306.54;1396883;101;21167;-79
2022/12/06 12:18:00;;;;;;;17.30;3.85;;;;;;;0.37;42.27;102314.02;1395138;101;21867;-80
2022/12/06 12:20:36;;;;;;;15.45;3.65;;;;;;;0.39;42.48;102305.94;1379398;101;21166;-81
2022/12/06 12:23:29;;;;;;;10.05;3.17;;;;;;;0.43;42.18;102301.98;1395269;101;21167;-80
2022/12/06 12:26:14;;;;;;;13.38;2.47;;;;;;;0.50;41.62;102304.39;1373977;103;21740;-80
2022/12/06 12:28:43;;;;;;;8.33;2.52;;;;;;;0.57;40.61;102315.23;1373957;104;21405;-79
2022/12/06 12:31:22;;;;;;;20.10;3.52;;;;;;;0.57;40.66;102308.59;1373905;103;21128;-80
2022/12/06 12:34:11;;;;;;;13.45;3.40;;;;;;;0.62;40.57;102306.33;1374042;103;21096;-79
2022/12/06 12:36:38;;;;;;;9.68;1.98;;;;;;;0.66;40.59;102314.31;1404219;99;21261;-80
2022/12/06 12:39:04;;;;;;;7.83;2.08;;;;;;;0.72;39.66;102307.07;1440327;98;21633;-80
2022/12/06 12:41:42;;;;;;;5.62;1.98;;;;;;;0.75;39.68;102302.78;1440051;99;21652;-80
2022/12/06 12:44:25;;;;;;;6.58;2.60;;;;;;;0.68;40.11;102300.41;1412335;99;21186;-79
2022/12/06 12:50:32;;;;;;;6.20;2.42;;;;;;;0.76;39.06;102308.42;1436908;99;21143;-78
2022/12/06 12:52:59;;;;;;;8.05;1.65;;;;;;;0.66;39.44;102297.90;1437428;99;21015;-78
2022/12/06 12:55:29;;;;;;;9.43;2.05;;;;;;;0.61;39.48;102292.20;1437316;99;21681;-78
2022/12/06 12:57:59;;;;;;;8.88;1.70;;;;;;;0.58;39.67;102291.19;1437165;99;21159;-78
2022/12/06 13:00:38;;;;;;;8.08;1.70;;;;;;;0.54;39.98;102296.97;1437325;99;21036;-79
2022/12/06 13:03:17;;;;;;;6.42;2.30;;;;;;;0.51;40.05;102298.09;1449362;97;21610;-78
2022/12/06 13:05:45;;;;;;;14.45;2.70;;;;;;;0.44;40.21;102296.55;1468110;97;21594;-78
2022/12/06 13:08:20;;;;;;;6.78;2.12;;;;;;;0.44;39.85;102300.52;1537945;90;21185;-78
2022/12/06 13:10:53;;;;;;;8.63;2.42;;;;;;;0.41;40.08;102302.16;1584840;90;21084;-78
2022/12/06 13:13:28;;;;;;;7.53;2.17;;;;;;;0.39;40.28;102288.70;1585021;90;21095;-78
2022/12/06 13:15:56;;;;;;;8.05;2.20;;;;;;;0.32;40.29;102289.77;1582316;90;21052;-78
2022/12/06 13:18:31;;;;;;;7.62;2.00;;;;;;;0.24;40.44;102285.73;1584777;90;21618;-78
2022/12/06 13:21:00;;;;;;;6.58;1.80;;;;;;;0.21;40.30;102283.38;1584991;90;21182;-78
2022/12/06 13:23:33;;;;;;;9.93;1.72;;;;;;;0.12;40.76;102275.84;1585012;90;21071;-79
2022/12/06 13:26:31;;;;;;;5.37;2.00;;;;;;;0.06;40.62;102273.78;1582193;90;21039;-78
2022/12/06 13:29:28;;;;;;;5.97;2.00;;;;;;;0.01;40.89;102271.23;1583877;90;21059;-79
2022/12/06 13:31:57;;;;;;;12.65;2.83;;;;;;;-0.06;40.47;102277.13;1584698;90;21130;-79
2022/12/06 13:34:38;;;;;;;10.08;2.70;;;;;;;-0.07;40.52;102266.66;1584860;90;21342;-80
2022/12/06 13:37:27;;;;;;;9.15;2.72;;;;;;;-0.13;40.47;102272.55;1584977;89;21626;-80
2022/12/06 13:39:54;;;;;;;9.38;3.00;;;;;;;-0.18;40.41;102266.36;1500327;89;21114;-79
2022/12/06 13:42:37;;;;;;;5.95;2.12;;;;;;;-0.29;40.63;102263.94;1598744;89;21518;-79
2022/12/06 13:45:26;;;;;;;15.95;4.03;;;;;;;-0.36;40.54;102257.04;1516810;94;21142;-79
2022/12/06 13:47:53;;;;;;;9.00;2.80;;;;;;;-0.37;40.59;102259.86;1535725;91;21231;-79
2022/12/06 13:50:28;;;;;;;22.48;4.10;;;;;;;-0.48;40.63;102251.10;1556953;92;21225;-79
2022/12/06 13:53:01;;;;;;;17.42;5.47;;;;;;;-0.47;40.55;102253.28;1556838;92;21653;-79
2022/12/06 13:55:32;;;;;;;13.98;3.45;;;;;;;-0.53;40.66;102251.19;1528807;93;21087;-79
2022/12/06 13:58:06;;;;;;;6.83;2.17;;;;;;;-0.59;40.81;102249.98;1557057;92;21193;-79
2022/12/06 14:00:43;;;;;;;10.00;3.00;;;;;;;-0.64;40.93;102255.38;1557064;92;21383;-79
2022/12/06 14:03:22;;;;;;;8.93;2.27;;;;;;;-0.67;41.03;102249.88;1557057;91;21640;-79
2022/12/06 14:06:04;;;;;;;9.33;2.33;;;;;;;-0.70;41.12;102244.38;1556842;92;21628;-79
2022/12/06 14:08:41;;;;;;;12.00;2.58;;;;;;;-0.75;41.23;102245.78;1557379;92;21072;-79
2022/12/06 14:11:13;;;;;;;8.88;2.90;;;;;;;-0.82;41.41;102244.20;1566754;91;21126;-79
2022/12/06 14:13:42;;;;;;;12.18;3.80;;;;;;;-0.90;41.62;102249.88;1566620;91;21300;-79
2022/12/06 14:16:13;;;;;;;22.55;6.12;;;;;;;-1.01;41.78;102248.22;1578416;84;21196;-79
2022/12/06 14:18:41;;;;;;;20.95;6.37;;;;;;;-1.04;41.73;102245.36;1672379;85;21110;-79
2022/12/06 14:21:18;;;;;;;25.60;6.47;;;;;;;-1.12;41.80;102245.72;1661570;86;21046;-80
2022/12/06 14:23:47;;;;;;;24.72;7.20;;;;;;;-1.23;42.03;102242.77;1659870;86;21036;-79
2022/12/06 14:26:26;;;;;;;34.70;8.98;;;;;;;-1.32;42.30;102244.45;1661407;86;21391;-79
2022/12/06 14:28:56;;;;;;;44.23;10.80;;;;;;;-1.43;42.65;102249.38;1661286;86;21080;-79
2022/12/06 14:31:28;;;;;;;46.23;12.00;;;;;;;-1.55;42.98;102250.50;1661604;86;21198;-79
2022/12/06 14:33:55;;;;;;;30.68;9.38;;;;;;;-1.70;43.33;102254.05;1661626;86;21107;-79
2022/12/06 14:36:29;;;;;;;24.75;8.00;;;;;;;-1.77;43.54;102249.44;1661334;86;21123;-79
2022/12/06 14:39:00;;;;;;;30.05;7.50;;;;;;;-1.92;43.96;102247.69;1603599;89;21288;-79
2022/12/06 14:45:14;;;;;;;23.45;7.05;;;;;;;-2.15;44.62;102244.44;1652262;86;21061;-79
2022/12/06 14:47:42;;;;;;;24.77;6.45;;;;;;;-2.27;45.17;102245.52;1650006;86;21092;-78
2022/12/06 14:50:25;;;;;;;18.45;6.35;;;;;;;-2.32;45.59;102246.77;1652735;86;21130;-79
2022/12/06 14:53:08;;;;;;;33.08;7.67;;;;;;;-2.38;46.00;102245.12;1602379;89;21864;-79
2022/12/06 14:55:40;;;;;;;26.85;7.83;;;;;;;-2.47;46.38;102236.69;1599662;89;20999;-79
2022/12/06 14:58:19;;;;;;;29.18;7.78;;;;;;;-2.57;46.71;102239.30;1596784;89;21099;-79
2022/12/06 15:01:24;;;;;;;23.07;7.03;;;;;;;-2.58;47.01;102240.28;1602823;89;21078;-79
2022/12/06 15:04:04;;;;;;;24.25;6.83;;;;;;;-2.61;47.35;102231.31;1602470;89;21002;-79
2022/12/06 15:06:33;;;;;;;26.82;7.03;;;;;;;-2.66;47.80;102231.70;1602566;89;21113;-79
2022/12/06 15:09:13;;;;;;;22.95;6.45;;;;;;;-2.68;47.88;102227.52;1579512;89;21014;-79
2022/12/06 15:14:40;;;;;;;21.57;6.03;;;;;;;-2.73;48.31;102219.19;1578958;89;21205;-79
2022/12/06 15:17:14;;;;;;;25.62;6.22;;;;;;;-2.77;48.60;102219.42;1608433;89;21094;-79
2022/12/06 15:19:51;;;;;;;26.33;5.70;;;;;;;-2.81;48.56;102211.44;1610049;89;21861;-80
2022/12/06 15:22:28;;;;;;;24.55;6.17;;;;;;;-2.85;48.75;102210.52;1608671;89;21166;-80
2022/12/06 15:24:58;;;;;;;27.20;7.60;;;;;;;-2.86;48.91;102208.34;1609971;89;21076;-80
2022/12/06 15:27:27;;;;;;;22.77;6.70;;;;;;;-2.90;48.97;102211.39;1609872;89;21035;-80
2022/12/06 15:29:54;;;;;;;27.40;7.03;;;;;;;-2.95;49.23;102217.54;1645762;85;21123;-79
2022/12/06 15:32:23;;;;;;;23.35;7.15;;;;;;;-2.97;49.28;102213.24;1681240;85;21138;-80
2022/12/06 15:34:49;;;;;;;21.42;6.17;;;;;;;-2.99;49.43;102216.48;1676356;81;21056;-79
2022/12/06 15:37:16;;;;;;;26.33;8.60;;;;;;;-3.01;49.36;102221.05;1761191;81;20984;-79
2022/12/06 15:39:43;;;;;;;26.65;7.42;;;;;;;-3.04;49.58;102221.30;1761593;81;21602;-79
2022/12/06 15:42:21;;;;;;;27.82;7.47;;;;;;;-3.07;49.75;102220.25;1761547;81;21071;-80
2022/12/06 15:44:49;;;;;;;24.18;7.37;;;;;;;-3.05;49.62;102222.28;1759976;81;21147;-80